Aérodrome :
LOGIN :

S'inscrire | Disclaimer

   EN    FR    IT 

 










Légende :    VFR   VFR Marginal   IFR   IFR Intensif   IFR Très Intensif
Visi : 
Plafond : 
>= 8 km
>= 3000ft
5 à 8 km
1000 à 3000 ft
1500m à 5 km
500 à 1000 ft
800 à 1500m
200 à 500 ft
< 800m
< 200 ft
Symboles :   Orages  Brouillard  Fortes neiges  Fortes précipitations  Vent > 20 kt
SIGMETs :   Divers  Orages  Givrage  Turbulence  Onde Orograph.  Cendres Volcan.






- Altitude de l'aérodrome : 870 ft
- Code IATA : ETZ


LFJL - Metz Nancy Lorraine

DERNIER METAR :
  • 301600Z AUTO 28021KT 9999 BKN019 OVC100 18/11 Q1014 TEMPO 2000 TSRA FEW050CB BECMG 24005KT

METARs EXPIRÉS :
  • 301530Z AUTO 29024KT 9999 BKN017 OVC140 18/13 Q1013 TEMPO 2000 TSRA FEW050CB BECMG 24005KT
  • 301500Z AUTO 29023KT CAVOK 20/14 Q1012 TEMPO 30020G35KT 2000 TSRA BKN010 BKN040CB
  • 301430Z AUTO 28019KT 9999 //////CB 24/15 Q1011 TEMPO 30020G35KT 2000 TSRA BKN010 BKN040CB
  • 301400Z AUTO 28017KT CAVOK 25/15 Q1011 TEMPO 30020G35KT 2000 TSRA BKN010 BKN040CB
  • 301330Z AUTO 29014KT CAVOK 25/15 Q1011 TEMPO 30020G35KT 2000 TSRA BKN010 BKN040CB

TAF TAF LFJL
Valide du 30 à 12h jusqu'au 01 à 12h UTC


301100Z 3012/0112 24005KT CAVOK
TEMPO 3012/3018 SHRA FEW050CB
PROB40
TEMPO 3012/3017 30020G35KT 2000 TSRA BKN010 BKN040CB
PROB30
TEMPO 3012/3015 TSRAGS
PROB30
TEMPO 3021/0106 BKN009
PROB40
TEMPO 0110/0112 SHRA FEW050TCU



MET'MAP, la Météo Aéronautique d'un coup d'oeil ! - Copyright ORBIFLY Décembre 2007 - Disclaimer

ORBIFLY MET'MAP TEAM :

Programmation & Développement : Alexandra Zaïnal
Sur une idée originale de : Baudouin d'Aumeries
Soutien technique & logistique : Manuel Goepfert
Assistance : Marc-Olivier Méhu




SOURCES & CREDITS :

   NOAA